sensor_id;sensor_type;location;lat;lon;timestamp;P1;durP1;ratioP1;P2;durP2;ratioP2
32906;SDS011;19259;51.590;5.320;2022-09-20T00:01:20;13.78;;;5.03;;
32906;SDS011;19259;51.590;5.320;2022-09-20T00:03:50;14.80;;;4.55;;
32906;SDS011;19259;51.590;5.320;2022-09-20T00:06:24;11.65;;;4.62;;
32906;SDS011;19259;51.590;5.320;2022-09-20T00:08:53;13.98;;;4.87;;
32906;SDS011;19259;51.590;5.320;2022-09-20T00:11:22;16.02;;;5.05;;
32906;SDS011;19259;51.590;5.320;2022-09-20T00:13:51;11.97;;;4.97;;
32906;SDS011;19259;51.590;5.320;2022-09-20T00:16:22;11.45;;;4.33;;
32906;SDS011;19259;51.590;5.320;2022-09-20T00:18:52;16.32;;;4.75;;
32906;SDS011;19259;51.590;5.320;2022-09-20T00:21:22;13.85;;;4.12;;
32906;SDS011;19259;51.590;5.320;2022-09-20T00:23:52;13.00;;;4.15;;
32906;SDS011;19259;51.590;5.320;2022-09-20T00:26:22;11.60;;;4.25;;
32906;SDS011;19259;51.590;5.320;2022-09-20T00:28:50;12.63;;;4.97;;
32906;SDS011;19259;51.590;5.320;2022-09-20T00:31:18;10.58;;;4.25;;
32906;SDS011;19259;51.590;5.320;2022-09-20T00:33:45;11.75;;;4.20;;
32906;SDS011;19259;51.590;5.320;2022-09-20T00:36:31;12.28;;;4.45;;
32906;SDS011;19259;51.590;5.320;2022-09-20T00:38:59;13.53;;;4.53;;
32906;SDS011;19259;51.590;5.320;2022-09-20T00:41:28;16.40;;;4.83;;
32906;SDS011;19259;51.590;5.320;2022-09-20T00:44:35;15.80;;;4.72;;
32906;SDS011;19259;51.590;5.320;2022-09-20T00:46:49;19.80;;;5.17;;
32906;SDS011;19259;51.590;5.320;2022-09-20T00:49:18;14.30;;;4.30;;
32906;SDS011;19259;51.590;5.320;2022-09-20T00:51:49;12.30;;;4.78;;
32906;SDS011;19259;51.590;5.320;2022-09-20T00:54:20;14.35;;;4.62;;
32906;SDS011;19259;51.590;5.320;2022-09-20T00:56:49;10.20;;;4.80;;
32906;SDS011;19259;51.590;5.320;2022-09-20T00:59:40;12.75;;;4.55;;
32906;SDS011;19259;51.590;5.320;2022-09-20T01:01:52;9.13;;;3.83;;
32906;SDS011;19259;51.590;5.320;2022-09-20T01:04:25;11.63;;;4.83;;
32906;SDS011;19259;51.590;5.320;2022-09-20T01:06:55;13.18;;;4.55;;
32906;SDS011;19259;51.590;5.320;2022-09-20T01:09:24;15.50;;;4.78;;
32906;SDS011;19259;51.590;5.320;2022-09-20T01:11:54;14.15;;;5.25;;
32906;SDS011;19259;51.590;5.320;2022-09-20T01:14:24;10.28;;;4.83;;
32906;SDS011;19259;51.590;5.320;2022-09-20T01:16:53;11.15;;;4.50;;
32906;SDS011;19259;51.590;5.320;2022-09-20T01:19:27;11.55;;;4.95;;
32906;SDS011;19259;51.590;5.320;2022-09-20T01:21:56;11.93;;;4.40;;
32906;SDS011;19259;51.590;5.320;2022-09-20T01:24:26;17.20;;;5.05;;
32906;SDS011;19259;51.590;5.320;2022-09-20T01:26:57;10.63;;;3.83;;
32906;SDS011;19259;51.590;5.320;2022-09-20T01:29:44;16.25;;;4.58;;
32906;SDS011;19259;51.590;5.320;2022-09-20T01:32:12;14.28;;;4.83;;
32906;SDS011;19259;51.590;5.320;2022-09-20T01:34:46;10.50;;;4.30;;
32906;SDS011;19259;51.590;5.320;2022-09-20T01:37:21;10.20;;;4.50;;
32906;SDS011;19259;51.590;5.320;2022-09-20T01:40:02;11.70;;;4.40;;
32906;SDS011;19259;51.590;5.320;2022-09-20T01:42:48;14.98;;;6.08;;
32906;SDS011;19259;51.590;5.320;2022-09-20T01:45:22;18.95;;;5.35;;
32906;SDS011;19259;51.590;5.320;2022-09-20T01:47:59;19.25;;;4.97;;
32906;SDS011;19259;51.590;5.320;2022-09-20T01:50:32;12.50;;;4.47;;
32906;SDS011;19259;51.590;5.320;2022-09-20T01:55:59;19.95;;;4.55;;
32906;SDS011;19259;51.590;5.320;2022-09-20T01:59:03;11.78;;;4.22;;
32906;SDS011;19259;51.590;5.320;2022-09-20T02:02:00;11.85;;;5.15;;
32906;SDS011;19259;51.590;5.320;2022-09-20T02:10:47;9.48;;;4.25;;
32906;SDS011;19259;51.590;5.320;2022-09-20T02:13:29;14.13;;;5.20;;
32906;SDS011;19259;51.590;5.320;2022-09-20T02:19:00;10.25;;;4.45;;
32906;SDS011;19259;51.590;5.320;2022-09-20T02:21:55;11.28;;;4.58;;
32906;SDS011;19259;51.590;5.320;2022-09-20T02:24:28;12.25;;;4.55;;
32906;SDS011;19259;51.590;5.320;2022-09-20T02:29:57;9.05;;;4.37;;
32906;SDS011;19259;51.590;5.320;2022-09-20T02:38:27;9.88;;;3.47;;
32906;SDS011;19259;51.590;5.320;2022-09-20T02:46:50;10.58;;;3.10;;
32906;SDS011;19259;51.590;5.320;2022-09-20T02:55:20;8.15;;;2.60;;
32906;SDS011;19259;51.590;5.320;2022-09-20T02:58:12;7.78;;;3.37;;
32906;SDS011;19259;51.590;5.320;2022-09-20T03:00:58;8.63;;;1.95;;
32906;SDS011;19259;51.590;5.320;2022-09-20T03:03:39;7.20;;;2.33;;
32906;SDS011;19259;51.590;5.320;2022-09-20T03:09:01;6.65;;;2.20;;
32906;SDS011;19259;51.590;5.320;2022-09-20T03:14:21;10.65;;;2.90;;
32906;SDS011;19259;51.590;5.320;2022-09-20T03:22:50;7.83;;;2.80;;
32906;SDS011;19259;51.590;5.320;2022-09-20T03:25:32;8.63;;;3.92;;
32906;SDS011;19259;51.590;5.320;2022-09-20T03:31:11;11.65;;;3.40;;
32906;SDS011;19259;51.590;5.320;2022-09-20T03:44:44;13.38;;;4.83;;
32906;SDS011;19259;51.590;5.320;2022-09-20T03:47:19;13.60;;;4.70;;
32906;SDS011;19259;51.590;5.320;2022-09-20T03:50:00;12.03;;;4.58;;
32906;SDS011;19259;51.590;5.320;2022-09-20T04:01:37;13.62;;;3.67;;
32906;SDS011;19259;51.590;5.320;2022-09-20T04:04:18;7.92;;;4.22;;
32906;SDS011;19259;51.590;5.320;2022-09-20T04:09:55;9.43;;;3.70;;
32906;SDS011;19259;51.590;5.320;2022-09-20T04:26:05;7.62;;;2.65;;
32906;SDS011;19259;51.590;5.320;2022-09-20T04:28:39;11.48;;;3.10;;
32906;SDS011;19259;51.590;5.320;2022-09-20T04:31:19;9.60;;;3.42;;
32906;SDS011;19259;51.590;5.320;2022-09-20T04:33:44;10.72;;;3.35;;
32906;SDS011;19259;51.590;5.320;2022-09-20T04:36:34;8.38;;;2.85;;
32906;SDS011;19259;51.590;5.320;2022-09-20T04:39:08;6.60;;;2.27;;
32906;SDS011;19259;51.590;5.320;2022-09-20T04:41:50;8.15;;;3.10;;
32906;SDS011;19259;51.590;5.320;2022-09-20T04:47:23;12.03;;;2.60;;
32906;SDS011;19259;51.590;5.320;2022-09-20T04:50:17;14.85;;;2.75;;
32906;SDS011;19259;51.590;5.320;2022-09-20T05:00:47;9.40;;;3.27;;
32906;SDS011;19259;51.590;5.320;2022-09-20T05:17:10;7.83;;;4.08;;
32906;SDS011;19259;51.590;5.320;2022-09-20T05:19:44;12.37;;;4.15;;
32906;SDS011;19259;51.590;5.320;2022-09-20T05:27:58;9.60;;;4.08;;
32906;SDS011;19259;51.590;5.320;2022-09-20T05:30:33;11.68;;;5.17;;
32906;SDS011;19259;51.590;5.320;2022-09-20T05:36:11;12.73;;;4.92;;
32906;SDS011;19259;51.590;5.320;2022-09-20T05:38:51;16.33;;;5.00;;
32906;SDS011;19259;51.590;5.320;2022-09-20T05:46:56;14.70;;;5.72;;
32906;SDS011;19259;51.590;5.320;2022-09-20T05:58:00;11.10;;;5.00;;
32906;SDS011;19259;51.590;5.320;2022-09-20T06:00:52;14.10;;;5.80;;
32906;SDS011;19259;51.590;5.320;2022-09-20T06:03:40;12.45;;;5.53;;
32906;SDS011;19259;51.590;5.320;2022-09-20T06:15:01;13.95;;;5.40;;
32906;SDS011;19259;51.590;5.320;2022-09-20T06:36:51;11.30;;;5.83;;
32906;SDS011;19259;51.590;5.320;2022-09-20T06:51:51;10.72;;;5.40;;
32906;SDS011;19259;51.590;5.320;2022-09-20T06:54:22;14.55;;;5.58;;
32906;SDS011;19259;51.590;5.320;2022-09-20T06:56:51;15.30;;;5.40;;
32906;SDS011;19259;51.590;5.320;2022-09-20T06:59:19;12.40;;;6.58;;
32906;SDS011;19259;51.590;5.320;2022-09-20T07:01:50;13.55;;;5.10;;
32906;SDS011;19259;51.590;5.320;2022-09-20T07:04:20;12.63;;;5.15;;
32906;SDS011;19259;51.590;5.320;2022-09-20T07:06:49;11.83;;;5.10;;
32906;SDS011;19259;51.590;5.320;2022-09-20T07:09:18;12.47;;;5.75;;
32906;SDS011;19259;51.590;5.320;2022-09-20T07:11:48;10.98;;;5.25;;
32906;SDS011;19259;51.590;5.320;2022-09-20T07:14:16;10.95;;;4.92;;
32906;SDS011;19259;51.590;5.320;2022-09-20T07:16:44;11.15;;;4.80;;
32906;SDS011;19259;51.590;5.320;2022-09-20T07:19:11;11.08;;;5.12;;
32906;SDS011;19259;51.590;5.320;2022-09-20T07:21:40;11.95;;;4.85;;
32906;SDS011;19259;51.590;5.320;2022-09-20T07:24:08;8.98;;;4.28;;
32906;SDS011;19259;51.590;5.320;2022-09-20T07:26:38;11.22;;;4.53;;
32906;SDS011;19259;51.590;5.320;2022-09-20T07:29:09;8.95;;;4.35;;
32906;SDS011;19259;51.590;5.320;2022-09-20T07:31:37;9.03;;;4.35;;
32906;SDS011;19259;51.590;5.320;2022-09-20T07:34:04;10.98;;;4.72;;
32906;SDS011;19259;51.590;5.320;2022-09-20T07:36:32;9.50;;;4.80;;
32906;SDS011;19259;51.590;5.320;2022-09-20T07:38:59;13.93;;;4.25;;
32906;SDS011;19259;51.590;5.320;2022-09-20T07:41:27;11.50;;;4.75;;
32906;SDS011;19259;51.590;5.320;2022-09-20T07:43:56;11.93;;;4.12;;
32906;SDS011;19259;51.590;5.320;2022-09-20T07:46:25;9.95;;;3.80;;
32906;SDS011;19259;51.590;5.320;2022-09-20T07:48:53;8.23;;;3.50;;
32906;SDS011;19259;51.590;5.320;2022-09-20T07:51:20;18.10;;;4.30;;
32906;SDS011;19259;51.590;5.320;2022-09-20T07:53:48;7.10;;;3.60;;
32906;SDS011;19259;51.590;5.320;2022-09-20T07:56:17;12.47;;;4.10;;
32906;SDS011;19259;51.590;5.320;2022-09-20T07:58:44;7.12;;;3.27;;
32906;SDS011;19259;51.590;5.320;2022-09-20T08:01:12;6.50;;;3.35;;
32906;SDS011;19259;51.590;5.320;2022-09-20T08:03:40;6.87;;;3.10;;
32906;SDS011;19259;51.590;5.320;2022-09-20T08:06:08;9.73;;;4.12;;
32906;SDS011;19259;51.590;5.320;2022-09-20T08:08:39;13.00;;;3.67;;
32906;SDS011;19259;51.590;5.320;2022-09-20T08:11:08;9.53;;;3.52;;
32906;SDS011;19259;51.590;5.320;2022-09-20T08:13:38;9.73;;;3.33;;
32906;SDS011;19259;51.590;5.320;2022-09-20T08:16:08;8.73;;;2.75;;
32906;SDS011;19259;51.590;5.320;2022-09-20T08:18:38;6.90;;;2.92;;
32906;SDS011;19259;51.590;5.320;2022-09-20T08:21:08;13.05;;;2.98;;
32906;SDS011;19259;51.590;5.320;2022-09-20T08:23:36;11.68;;;3.05;;
32906;SDS011;19259;51.590;5.320;2022-09-20T08:26:06;10.70;;;2.77;;
32906;SDS011;19259;51.590;5.320;2022-09-20T08:28:39;10.68;;;4.12;;
32906;SDS011;19259;51.590;5.320;2022-09-20T08:31:10;11.18;;;2.77;;
32906;SDS011;19259;51.590;5.320;2022-09-20T08:33:41;10.48;;;2.92;;
32906;SDS011;19259;51.590;5.320;2022-09-20T08:36:13;10.55;;;2.20;;
32906;SDS011;19259;51.590;5.320;2022-09-20T08:38:43;12.00;;;2.17;;
32906;SDS011;19259;51.590;5.320;2022-09-20T08:41:21;6.67;;;1.92;;
32906;SDS011;19259;51.590;5.320;2022-09-20T08:46:26;10.13;;;2.40;;
32906;SDS011;19259;51.590;5.320;2022-09-20T08:49:05;5.50;;;1.65;;
32906;SDS011;19259;51.590;5.320;2022-09-20T08:51:35;6.05;;;1.40;;
32906;SDS011;19259;51.590;5.320;2022-09-20T08:54:08;9.00;;;1.60;;
32906;SDS011;19259;51.590;5.320;2022-09-20T08:56:41;6.20;;;1.77;;
32906;SDS011;19259;51.590;5.320;2022-09-20T08:59:20;10.40;;;1.72;;
32906;SDS011;19259;51.590;5.320;2022-09-20T09:01:50;3.12;;;0.90;;
32906;SDS011;19259;51.590;5.320;2022-09-20T09:04:20;6.97;;;1.45;;
32906;SDS011;19259;51.590;5.320;2022-09-20T09:06:50;7.05;;;1.05;;
32906;SDS011;19259;51.590;5.320;2022-09-20T09:09:27;5.17;;;1.22;;
32906;SDS011;19259;51.590;5.320;2022-09-20T09:11:54;5.75;;;1.10;;
32906;SDS011;19259;51.590;5.320;2022-09-20T09:14:29;10.75;;;1.50;;
32906;SDS011;19259;51.590;5.320;2022-09-20T09:17:16;9.43;;;1.75;;
32906;SDS011;19259;51.590;5.320;2022-09-20T09:19:50;6.92;;;1.27;;
32906;SDS011;19259;51.590;5.320;2022-09-20T09:22:29;6.40;;;1.45;;
32906;SDS011;19259;51.590;5.320;2022-09-20T09:30:29;7.83;;;1.47;;
32906;SDS011;19259;51.590;5.320;2022-09-20T09:33:21;6.70;;;1.60;;
32906;SDS011;19259;51.590;5.320;2022-09-20T09:36:06;6.97;;;1.57;;
32906;SDS011;19259;51.590;5.320;2022-09-20T09:38:38;6.45;;;1.50;;
32906;SDS011;19259;51.590;5.320;2022-09-20T09:41:20;7.45;;;1.57;;
32906;SDS011;19259;51.590;5.320;2022-09-20T09:43:48;11.50;;;1.40;;
32906;SDS011;19259;51.590;5.320;2022-09-20T09:46:35;6.92;;;1.22;;
32906;SDS011;19259;51.590;5.320;2022-09-20T09:49:06;9.08;;;1.32;;
32906;SDS011;19259;51.590;5.320;2022-09-20T09:52:05;4.47;;;1.60;;
32906;SDS011;19259;51.590;5.320;2022-09-20T09:54:45;5.65;;;1.80;;
32906;SDS011;19259;51.590;5.320;2022-09-20T10:00:14;12.40;;;1.25;;
32906;SDS011;19259;51.590;5.320;2022-09-20T10:02:57;10.85;;;1.22;;
32906;SDS011;19259;51.590;5.320;2022-09-20T10:08:22;3.17;;;1.42;;
32906;SDS011;19259;51.590;5.320;2022-09-20T10:10:55;7.90;;;1.25;;
32906;SDS011;19259;51.590;5.320;2022-09-20T10:13:37;9.68;;;1.50;;
32906;SDS011;19259;51.590;5.320;2022-09-20T10:16:13;4.53;;;1.20;;
32906;SDS011;19259;51.590;5.320;2022-09-20T10:24:19;4.67;;;0.85;;
32906;SDS011;19259;51.590;5.320;2022-09-20T10:35:28;6.12;;;1.50;;
32906;SDS011;19259;51.590;5.320;2022-09-20T10:38:33;9.98;;;1.30;;
32906;SDS011;19259;51.590;5.320;2022-09-20T10:41:04;5.08;;;1.15;;
32906;SDS011;19259;51.590;5.320;2022-09-20T10:44:17;4.70;;;0.90;;
32906;SDS011;19259;51.590;5.320;2022-09-20T10:49:30;7.60;;;2.05;;
32906;SDS011;19259;51.590;5.320;2022-09-20T10:58:14;3.65;;;1.20;;
32906;SDS011;19259;51.590;5.320;2022-09-20T11:00:17;7.12;;;2.05;;
32906;SDS011;19259;51.590;5.320;2022-09-20T11:08:31;7.75;;;1.30;;
32906;SDS011;19259;51.590;5.320;2022-09-20T11:11:10;4.42;;;1.50;;
32906;SDS011;19259;51.590;5.320;2022-09-20T11:16:25;2.87;;;1.05;;
32906;SDS011;19259;51.590;5.320;2022-09-20T11:18:55;4.42;;;1.45;;
32906;SDS011;19259;51.590;5.320;2022-09-20T11:24:04;4.47;;;1.00;;
32906;SDS011;19259;51.590;5.320;2022-09-20T11:32:05;5.03;;;1.35;;
32906;SDS011;19259;51.590;5.320;2022-09-20T11:35:21;8.68;;;1.10;;
32906;SDS011;19259;51.590;5.320;2022-09-20T11:37:24;5.87;;;1.05;;
32906;SDS011;19259;51.590;5.320;2022-09-20T11:39:53;4.55;;;1.32;;
32906;SDS011;19259;51.590;5.320;2022-09-20T11:42:22;4.08;;;1.10;;
32906;SDS011;19259;51.590;5.320;2022-09-20T11:44:52;5.17;;;1.10;;
32906;SDS011;19259;51.590;5.320;2022-09-20T11:47:25;6.08;;;1.90;;
32906;SDS011;19259;51.590;5.320;2022-09-20T11:53:12;4.97;;;1.70;;
32906;SDS011;19259;51.590;5.320;2022-09-20T11:56:02;7.10;;;1.30;;
32906;SDS011;19259;51.590;5.320;2022-09-20T11:58:49;4.87;;;1.17;;
32906;SDS011;19259;51.590;5.320;2022-09-20T12:01:32;3.97;;;0.60;;
32906;SDS011;19259;51.590;5.320;2022-09-20T12:04:05;5.67;;;0.90;;
32906;SDS011;19259;51.590;5.320;2022-09-20T12:06:33;6.55;;;1.40;;
32906;SDS011;19259;51.590;5.320;2022-09-20T12:09:23;6.55;;;1.12;;
32906;SDS011;19259;51.590;5.320;2022-09-20T12:11:53;5.53;;;1.12;;
32906;SDS011;19259;51.590;5.320;2022-09-20T12:14:22;5.22;;;0.80;;
32906;SDS011;19259;51.590;5.320;2022-09-20T12:16:52;8.43;;;2.20;;
32906;SDS011;19259;51.590;5.320;2022-09-20T12:22:14;2.90;;;0.88;;
32906;SDS011;19259;51.590;5.320;2022-09-20T12:24:32;6.37;;;0.90;;
32906;SDS011;19259;51.590;5.320;2022-09-20T12:27:18;6.12;;;2.08;;
32906;SDS011;19259;51.590;5.320;2022-09-20T12:32:04;3.65;;;1.30;;
32906;SDS011;19259;51.590;5.320;2022-09-20T12:34:34;4.58;;;1.00;;
32906;SDS011;19259;51.590;5.320;2022-09-20T12:39:36;4.70;;;1.00;;
32906;SDS011;19259;51.590;5.320;2022-09-20T12:44:54;4.20;;;1.42;;
32906;SDS011;19259;51.590;5.320;2022-09-20T12:49:52;4.45;;;1.25;;
32906;SDS011;19259;51.590;5.320;2022-09-20T13:03:26;3.72;;;1.02;;
32906;SDS011;19259;51.590;5.320;2022-09-20T13:08:46;5.10;;;0.90;;
32906;SDS011;19259;51.590;5.320;2022-09-20T13:14:23;2.47;;;0.90;;
32906;SDS011;19259;51.590;5.320;2022-09-20T13:17:38;4.55;;;0.88;;
32906;SDS011;19259;51.590;5.320;2022-09-20T13:19:44;5.55;;;1.05;;
32906;SDS011;19259;51.590;5.320;2022-09-20T13:24:51;2.98;;;0.88;;
32906;SDS011;19259;51.590;5.320;2022-09-20T13:27:24;5.60;;;0.82;;
32906;SDS011;19259;51.590;5.320;2022-09-20T13:29:53;4.35;;;1.42;;
32906;SDS011;19259;51.590;5.320;2022-09-20T13:32:28;2.02;;;0.55;;
32906;SDS011;19259;51.590;5.320;2022-09-20T13:37:45;2.67;;;0.93;;
32906;SDS011;19259;51.590;5.320;2022-09-20T13:40:32;3.92;;;1.02;;
32906;SDS011;19259;51.590;5.320;2022-09-20T13:43:17;6.55;;;1.10;;
32906;SDS011;19259;51.590;5.320;2022-09-20T13:46:06;4.92;;;0.90;;
32906;SDS011;19259;51.590;5.320;2022-09-20T13:48:36;2.10;;;0.80;;
32906;SDS011;19259;51.590;5.320;2022-09-20T13:51:14;3.92;;;1.10;;
32906;SDS011;19259;51.590;5.320;2022-09-20T13:53:47;4.90;;;1.10;;
32906;SDS011;19259;51.590;5.320;2022-09-20T13:56:16;4.10;;;0.80;;
32906;SDS011;19259;51.590;5.320;2022-09-20T13:58:46;3.20;;;1.27;;
32906;SDS011;19259;51.590;5.320;2022-09-20T14:01:24;6.28;;;1.30;;
32906;SDS011;19259;51.590;5.320;2022-09-20T14:03:49;7.12;;;1.65;;
32906;SDS011;19259;51.590;5.320;2022-09-20T14:06:16;4.80;;;1.60;;
32906;SDS011;19259;51.590;5.320;2022-09-20T14:08:47;5.67;;;2.58;;
32906;SDS011;19259;51.590;5.320;2022-09-20T14:13:48;3.37;;;1.32;;
32906;SDS011;19259;51.590;5.320;2022-09-20T14:16:26;4.92;;;1.20;;
32906;SDS011;19259;51.590;5.320;2022-09-20T14:18:49;4.83;;;1.20;;
32906;SDS011;19259;51.590;5.320;2022-09-20T14:21:20;3.55;;;0.90;;
32906;SDS011;19259;51.590;5.320;2022-09-20T14:26:24;2.95;;;0.88;;
32906;SDS011;19259;51.590;5.320;2022-09-20T14:28:53;4.30;;;1.10;;
32906;SDS011;19259;51.590;5.320;2022-09-20T14:31:25;2.40;;;0.72;;
32906;SDS011;19259;51.590;5.320;2022-09-20T14:33:52;6.28;;;0.90;;
32906;SDS011;19259;51.590;5.320;2022-09-20T14:36:24;4.62;;;0.95;;
32906;SDS011;19259;51.590;5.320;2022-09-20T14:38:54;5.25;;;0.93;;
32906;SDS011;19259;51.590;5.320;2022-09-20T14:41:26;3.65;;;0.90;;
32906;SDS011;19259;51.590;5.320;2022-09-20T14:44:01;3.33;;;0.85;;
32906;SDS011;19259;51.590;5.320;2022-09-20T14:46:31;3.42;;;1.02;;
32906;SDS011;19259;51.590;5.320;2022-09-20T14:52:20;2.05;;;0.70;;
32906;SDS011;19259;51.590;5.320;2022-09-20T14:54:41;3.42;;;0.80;;
32906;SDS011;19259;51.590;5.320;2022-09-20T14:57:08;6.60;;;1.30;;
32906;SDS011;19259;51.590;5.320;2022-09-20T14:59:41;4.50;;;1.10;;
32906;SDS011;19259;51.590;5.320;2022-09-20T15:02:12;5.25;;;0.90;;
32906;SDS011;19259;51.590;5.320;2022-09-20T15:04:41;6.42;;;2.37;;
32906;SDS011;19259;51.590;5.320;2022-09-20T15:07:20;5.10;;;1.50;;
32906;SDS011;19259;51.590;5.320;2022-09-20T15:09:48;6.00;;;2.17;;
32906;SDS011;19259;51.590;5.320;2022-09-20T15:12:21;3.47;;;1.92;;
32906;SDS011;19259;51.590;5.320;2022-09-20T15:14:46;3.92;;;1.27;;
32906;SDS011;19259;51.590;5.320;2022-09-20T15:17:15;6.55;;;0.90;;
32906;SDS011;19259;51.590;5.320;2022-09-20T15:19:44;6.08;;;1.45;;
32906;SDS011;19259;51.590;5.320;2022-09-20T15:22:12;4.85;;;1.45;;
32906;SDS011;19259;51.590;5.320;2022-09-20T15:24:40;2.95;;;1.07;;
32906;SDS011;19259;51.590;5.320;2022-09-20T15:27:10;3.35;;;0.90;;
32906;SDS011;19259;51.590;5.320;2022-09-20T15:29:38;4.90;;;1.10;;
32906;SDS011;19259;51.590;5.320;2022-09-20T15:32:08;2.92;;;0.60;;
32906;SDS011;19259;51.590;5.320;2022-09-20T15:34:38;4.55;;;1.10;;
32906;SDS011;19259;51.590;5.320;2022-09-20T15:37:06;2.77;;;1.10;;
32906;SDS011;19259;51.590;5.320;2022-09-20T15:39:33;5.12;;;1.00;;
32906;SDS011;19259;51.590;5.320;2022-09-20T15:42:01;3.33;;;1.20;;
32906;SDS011;19259;51.590;5.320;2022-09-20T15:44:35;6.15;;;2.15;;
32906;SDS011;19259;51.590;5.320;2022-09-20T15:46:59;7.92;;;1.77;;
32906;SDS011;19259;51.590;5.320;2022-09-20T15:49:28;3.62;;;1.42;;
32906;SDS011;19259;51.590;5.320;2022-09-20T15:51:58;6.75;;;1.00;;
32906;SDS011;19259;51.590;5.320;2022-09-20T15:54:26;4.80;;;1.52;;
32906;SDS011;19259;51.590;5.320;2022-09-20T15:56:55;7.60;;;2.17;;
32906;SDS011;19259;51.590;5.320;2022-09-20T15:59:23;8.05;;;2.52;;
32906;SDS011;19259;51.590;5.320;2022-09-20T16:01:50;7.90;;;1.92;;
32906;SDS011;19259;51.590;5.320;2022-09-20T16:04:18;9.90;;;1.27;;
32906;SDS011;19259;51.590;5.320;2022-09-20T16:06:46;3.17;;;1.00;;
32906;SDS011;19259;51.590;5.320;2022-09-20T16:09:15;2.08;;;0.60;;
32906;SDS011;19259;51.590;5.320;2022-09-20T16:11:44;5.87;;;1.15;;
32906;SDS011;19259;51.590;5.320;2022-09-20T16:14:12;3.55;;;0.85;;
32906;SDS011;19259;51.590;5.320;2022-09-20T16:16:39;5.83;;;1.35;;
32906;SDS011;19259;51.590;5.320;2022-09-20T16:19:12;5.80;;;1.20;;
32906;SDS011;19259;51.590;5.320;2022-09-20T16:21:43;5.25;;;0.90;;
32906;SDS011;19259;51.590;5.320;2022-09-20T16:24:17;3.08;;;0.90;;
32906;SDS011;19259;51.590;5.320;2022-09-20T16:26:45;4.25;;;1.20;;
32906;SDS011;19259;51.590;5.320;2022-09-20T16:29:12;10.13;;;1.22;;
32906;SDS011;19259;51.590;5.320;2022-09-20T16:31:42;1.85;;;0.80;;
32906;SDS011;19259;51.590;5.320;2022-09-20T16:34:19;3.17;;;0.70;;
32906;SDS011;19259;51.590;5.320;2022-09-20T16:36:48;3.00;;;0.93;;
32906;SDS011;19259;51.590;5.320;2022-09-20T16:39:18;1.87;;;0.80;;
32906;SDS011;19259;51.590;5.320;2022-09-20T16:41:48;4.47;;;0.70;;
32906;SDS011;19259;51.590;5.320;2022-09-20T16:44:17;3.33;;;1.15;;
32906;SDS011;19259;51.590;5.320;2022-09-20T16:46:45;4.53;;;1.10;;
32906;SDS011;19259;51.590;5.320;2022-09-20T16:49:12;3.17;;;1.10;;
32906;SDS011;19259;51.590;5.320;2022-09-20T16:51:42;7.67;;;1.42;;
32906;SDS011;19259;51.590;5.320;2022-09-20T16:54:13;3.25;;;1.02;;
32906;SDS011;19259;51.590;5.320;2022-09-20T16:56:48;6.03;;;1.32;;
32906;SDS011;19259;51.590;5.320;2022-09-20T16:59:17;6.72;;;1.35;;
32906;SDS011;19259;51.590;5.320;2022-09-20T17:01:48;4.22;;;1.00;;
32906;SDS011;19259;51.590;5.320;2022-09-20T17:04:17;6.12;;;2.33;;
32906;SDS011;19259;51.590;5.320;2022-09-20T17:06:46;5.47;;;1.17;;
32906;SDS011;19259;51.590;5.320;2022-09-20T17:09:15;5.47;;;1.00;;
32906;SDS011;19259;51.590;5.320;2022-09-20T17:11:47;6.00;;;1.10;;
32906;SDS011;19259;51.590;5.320;2022-09-20T17:14:17;2.87;;;0.80;;
32906;SDS011;19259;51.590;5.320;2022-09-20T17:16:46;2.55;;;0.80;;
32906;SDS011;19259;51.590;5.320;2022-09-20T17:19:16;5.72;;;1.30;;
32906;SDS011;19259;51.590;5.320;2022-09-20T17:21:45;6.60;;;1.60;;
32906;SDS011;19259;51.590;5.320;2022-09-20T17:24:15;4.62;;;1.90;;
32906;SDS011;19259;51.590;5.320;2022-09-20T17:26:45;5.75;;;1.57;;
32906;SDS011;19259;51.590;5.320;2022-09-20T17:29:14;5.25;;;1.40;;
32906;SDS011;19259;51.590;5.320;2022-09-20T17:31:43;4.62;;;1.55;;
32906;SDS011;19259;51.590;5.320;2022-09-20T17:34:13;4.90;;;1.65;;
32906;SDS011;19259;51.590;5.320;2022-09-20T17:36:43;6.65;;;2.22;;
32906;SDS011;19259;51.590;5.320;2022-09-20T17:39:12;8.65;;;2.40;;
32906;SDS011;19259;51.590;5.320;2022-09-20T17:41:42;6.62;;;2.10;;
32906;SDS011;19259;51.590;5.320;2022-09-20T17:44:14;7.55;;;1.87;;
32906;SDS011;19259;51.590;5.320;2022-09-20T17:46:43;7.10;;;1.52;;
32906;SDS011;19259;51.590;5.320;2022-09-20T17:49:13;6.00;;;2.85;;
32906;SDS011;19259;51.590;5.320;2022-09-20T17:51:43;4.92;;;1.92;;
32906;SDS011;19259;51.590;5.320;2022-09-20T17:54:13;4.25;;;1.30;;
32906;SDS011;19259;51.590;5.320;2022-09-20T17:56:42;6.17;;;1.60;;
32906;SDS011;19259;51.590;5.320;2022-09-20T17:59:15;5.37;;;1.70;;
32906;SDS011;19259;51.590;5.320;2022-09-20T18:01:44;5.95;;;1.67;;
32906;SDS011;19259;51.590;5.320;2022-09-20T18:04:14;5.42;;;1.70;;
32906;SDS011;19259;51.590;5.320;2022-09-20T18:06:46;5.10;;;2.00;;
32906;SDS011;19259;51.590;5.320;2022-09-20T18:09:16;4.85;;;1.50;;
32906;SDS011;19259;51.590;5.320;2022-09-20T18:11:47;5.87;;;2.02;;
32906;SDS011;19259;51.590;5.320;2022-09-20T18:14:16;7.67;;;2.50;;
32906;SDS011;19259;51.590;5.320;2022-09-20T18:16:45;9.60;;;3.20;;
32906;SDS011;19259;51.590;5.320;2022-09-20T18:19:13;12.78;;;2.92;;
32906;SDS011;19259;51.590;5.320;2022-09-20T18:21:40;7.55;;;4.17;;
32906;SDS011;19259;51.590;5.320;2022-09-20T18:24:09;14.23;;;4.25;;
32906;SDS011;19259;51.590;5.320;2022-09-20T18:26:37;7.22;;;3.20;;
32906;SDS011;19259;51.590;5.320;2022-09-20T18:29:11;12.82;;;6.12;;
32906;SDS011;19259;51.590;5.320;2022-09-20T18:31:40;13.20;;;6.22;;
32906;SDS011;19259;51.590;5.320;2022-09-20T18:34:13;10.08;;;5.50;;
32906;SDS011;19259;51.590;5.320;2022-09-20T18:36:45;11.00;;;4.70;;
32906;SDS011;19259;51.590;5.320;2022-09-20T18:39:18;16.27;;;6.65;;
32906;SDS011;19259;51.590;5.320;2022-09-20T18:41:59;13.05;;;6.12;;
32906;SDS011;19259;51.590;5.320;2022-09-20T18:44:28;9.38;;;4.72;;
32906;SDS011;19259;51.590;5.320;2022-09-20T18:46:58;8.53;;;2.62;;
32906;SDS011;19259;51.590;5.320;2022-09-20T18:49:32;6.55;;;2.67;;
32906;SDS011;19259;51.590;5.320;2022-09-20T18:52:02;8.90;;;2.85;;
32906;SDS011;19259;51.590;5.320;2022-09-20T18:54:30;13.38;;;3.02;;
32906;SDS011;19259;51.590;5.320;2022-09-20T18:56:58;7.53;;;2.33;;
32906;SDS011;19259;51.590;5.320;2022-09-20T18:59:28;8.63;;;3.17;;
32906;SDS011;19259;51.590;5.320;2022-09-20T19:02:01;13.90;;;6.65;;
32906;SDS011;19259;51.590;5.320;2022-09-20T19:12:51;10.05;;;3.85;;
32906;SDS011;19259;51.590;5.320;2022-09-20T19:15:42;10.18;;;4.30;;
32906;SDS011;19259;51.590;5.320;2022-09-20T19:21:01;8.60;;;3.27;;
32906;SDS011;19259;51.590;5.320;2022-09-20T19:26:40;8.95;;;3.12;;
32906;SDS011;19259;51.590;5.320;2022-09-20T19:29:30;9.75;;;3.60;;
32906;SDS011;19259;51.590;5.320;2022-09-20T19:31:51;10.82;;;3.85;;
32906;SDS011;19259;51.590;5.320;2022-09-20T19:34:17;11.73;;;3.95;;
32906;SDS011;19259;51.590;5.320;2022-09-20T19:39:35;5.35;;;2.70;;
32906;SDS011;19259;51.590;5.320;2022-09-20T19:45:17;8.58;;;3.50;;
32906;SDS011;19259;51.590;5.320;2022-09-20T19:51:01;7.62;;;2.95;;
32906;SDS011;19259;51.590;5.320;2022-09-20T19:53:30;9.38;;;3.05;;
32906;SDS011;19259;51.590;5.320;2022-09-20T19:58:45;9.58;;;3.70;;
32906;SDS011;19259;51.590;5.320;2022-09-20T20:01:19;8.10;;;3.40;;
32906;SDS011;19259;51.590;5.320;2022-09-20T20:03:51;11.53;;;3.87;;
32906;SDS011;19259;51.590;5.320;2022-09-20T20:09:11;6.67;;;4.00;;
32906;SDS011;19259;51.590;5.320;2022-09-20T20:11:48;8.23;;;4.60;;
32906;SDS011;19259;51.590;5.320;2022-09-20T20:15:19;10.78;;;4.58;;
32906;SDS011;19259;51.590;5.320;2022-09-20T20:19:56;10.82;;;4.67;;